Time;durP1;ratioP1;P1;durP2;ratioP2;P2;SDS_P1;SDS_P2;PMS_P1;PMS_P2;Temp;Humidity;BMP_temperature;BMP_pressure;BME280_temperature;BME280_humidity;BME280_pressure;Samples;Min_cycle;Max_cycle;Signal;HPM_P1;HPM_P2
2023/07/11 00:00:02;;;;;;;4.22;2.03;;;22.80;49.00;;;;;;4963841;28;20059;-82
2023/07/11 00:02:31;;;;;;;3.38;1.88;;;22.70;49.00;;;;;;4963353;28;20051;-82
2023/07/11 00:04:59;;;;;;;2.50;1.48;;;22.70;49.10;;;;;;4962066;28;20054;-82
2023/07/11 00:07:26;;;;;;;3.13;1.40;;;22.70;49.20;;;;;;4959550;28;20069;-81
2023/07/11 00:09:54;;;;;;;2.45;1.45;;;22.60;49.20;;;;;;4963360;28;20055;-81
2023/07/11 00:12:28;;;;;;;2.63;1.75;;;22.60;49.30;;;;;;4961646;28;20070;-81
2023/07/11 00:14:56;;;;;;;2.95;1.75;;;22.60;49.40;;;;;;4963314;28;20062;-81
2023/07/11 00:17:24;;;;;;;4.93;1.60;;;22.50;49.40;;;;;;4963319;28;20061;-82
2023/07/11 00:19:54;;;;;;;4.95;1.80;;;22.50;49.50;;;;;;4963263;28;20518;-81
2023/07/11 00:22:23;;;;;;;3.50;1.85;;;22.50;49.60;;;;;;4949526;28;20360;-81
2023/07/11 00:24:51;;;;;;;4.18;2.10;;;22.40;49.60;;;;;;4961617;28;20471;-82
2023/07/11 00:27:20;;;;;;;3.58;1.90;;;22.40;49.70;;;;;;4963091;28;20055;-81
2023/07/11 00:29:48;;;;;;;2.80;1.60;;;22.40;49.80;;;;;;4963583;28;20163;-81
2023/07/11 00:32:15;;;;;;;2.72;1.48;;;22.40;49.80;;;;;;4960996;28;20058;-82
2023/07/11 00:34:43;;;;;;;4.55;2.05;;;22.30;49.90;;;;;;4963541;28;20063;-81
2023/07/11 00:37:11;;;;;;;3.95;1.83;;;22.30;50.00;;;;;;4959169;28;20051;-82
2023/07/11 00:39:39;;;;;;;3.83;1.98;;;22.30;50.10;;;;;;4962941;28;20061;-81
2023/07/11 00:42:08;;;;;;;2.35;1.65;;;22.20;50.10;;;;;;4961223;28;20065;-81
2023/07/11 00:44:50;;;;;;;3.17;1.88;;;22.20;50.20;;;;;;4962283;28;20258;-81
2023/07/11 00:47:18;;;;;;;3.67;2.00;;;22.20;50.40;;;;;;4963415;28;20067;-82
2023/07/11 00:49:47;;;;;;;3.35;1.70;;;22.20;50.30;;;;;;4962480;28;20061;-81
2023/07/11 00:52:17;;;;;;;2.83;1.70;;;22.10;50.30;;;;;;4955135;28;20063;-81
2023/07/11 00:54:57;;;;;;;1.98;1.73;;;22.10;50.50;;;;;;4960599;28;20069;-81
2023/07/11 00:57:27;;;;;;;3.58;1.58;;;22.10;50.50;;;;;;4961548;28;20537;-81
2023/07/11 00:59:54;;;;;;;3.05;1.90;;;22.10;50.60;;;;;;4962203;28;20054;-81
2023/07/11 01:02:25;;;;;;;4.75;2.00;;;22.00;50.60;;;;;;4959726;28;20055;-83
2023/07/11 01:04:53;;;;;;;4.00;1.80;;;22.00;50.60;;;;;;4980341;23;20054;-47
2023/07/11 01:07:25;;;;;;;2.47;1.58;;;22.00;50.70;;;;;;4979723;28;20084;-45
2023/07/11 01:09:52;;;;;;;5.30;2.33;;;22.00;50.80;;;;;;4981846;28;20046;-44
2023/07/11 01:12:20;;;;;;;3.58;1.88;;;21.90;50.80;;;;;;4976080;28;20058;-44
2023/07/11 01:14:50;;;;;;;3.25;1.80;;;21.90;50.80;;;;;;4980660;28;20049;-44
2023/07/11 01:17:30;;;;;;;3.20;2.10;;;21.90;50.90;;;;;;4982917;28;20505;-46
2023/07/11 01:19:58;;;;;;;3.38;1.83;;;21.90;51.10;;;;;;4979423;28;20066;-46
2023/07/11 01:22:29;;;;;;;3.47;1.80;;;21.80;50.90;;;;;;4977586;28;20482;-44
2023/07/11 01:25:01;;;;;;;3.72;1.85;;;21.80;51.00;;;;;;4981230;28;20058;-45
2023/07/11 01:27:28;;;;;;;2.97;1.90;;;21.80;51.00;;;;;;4981339;28;20054;-46
2023/07/11 01:29:56;;;;;;;3.95;1.67;;;21.70;51.00;;;;;;4978518;28;20046;-48
2023/07/11 01:32:23;;;;;;;5.38;1.80;;;21.70;51.00;;;;;;4981215;28;20058;-51
2023/07/11 01:34:50;;;;;;;3.40;1.88;;;21.70;51.20;;;;;;4980765;28;20054;-45
2023/07/11 01:37:17;;;;;;;5.50;2.17;;;21.70;51.30;;;;;;4976016;28;20050;-45
2023/07/11 01:39:46;;;;;;;4.50;1.83;;;21.70;51.30;;;;;;4978680;28;20057;-46
2023/07/11 01:42:13;;;;;;;4.68;2.10;;;21.60;51.40;;;;;;4975993;28;20418;-46
2023/07/11 01:44:40;;;;;;;2.30;1.60;;;21.60;51.40;;;;;;4981694;28;20055;-52
2023/07/11 01:47:08;;;;;;;3.72;1.80;;;21.60;51.50;;;;;;4981748;28;20395;-51
2023/07/11 01:49:36;;;;;;;7.25;2.10;;;21.60;51.50;;;;;;4979481;28;20506;-50
2023/07/11 01:52:06;;;;;;;4.22;2.10;;;21.60;51.50;;;;;;4972679;28;20054;-46
2023/07/11 01:54:33;;;;;;;3.33;2.10;;;21.60;51.50;;;;;;4980473;28;20046;-48
2023/07/11 01:57:02;;;;;;;3.42;2.10;;;21.60;51.50;;;;;;4980878;28;20050;-47
2023/07/11 01:59:29;;;;;;;5.97;1.90;;;21.50;51.50;;;;;;4976771;28;20065;-51
2023/07/11 02:01:57;;;;;;;2.85;1.80;;;21.50;51.50;;;;;;4980971;28;20054;-44
2023/07/11 02:04:24;;;;;;;3.45;1.70;;;21.50;51.60;;;;;;4980606;28;20502;-46
2023/07/11 02:06:52;;;;;;;4.47;1.92;;;21.50;51.60;;;;;;4972648;28;20526;-44
2023/07/11 02:09:21;;;;;;;2.53;1.58;;;21.50;51.70;;;;;;4981344;28;20054;-45
2023/07/11 02:11:48;;;;;;;4.35;2.10;;;21.50;51.70;;;;;;4980353;28;20050;-45
2023/07/11 02:14:19;;;;;;;4.15;1.90;;;21.50;51.80;;;;;;4982164;28;20046;-48
2023/07/11 02:16:47;;;;;;;3.72;2.15;;;21.40;51.80;;;;;;4973816;28;20062;-45
2023/07/11 02:19:16;;;;;;;4.50;2.03;;;21.40;51.80;;;;;;4979304;28;20058;-51
2023/07/11 02:21:43;;;;;;;3.70;1.90;;;21.40;51.80;;;;;;4973714;28;20050;-49
2023/07/11 02:24:13;;;;;;;3.55;2.03;;;21.50;51.90;;;;;;4981524;28;20061;-46
2023/07/11 02:26:40;;;;;;;4.13;1.77;;;21.40;51.90;;;;;;4979707;28;20529;-51
2023/07/11 02:29:08;;;;;;;3.67;2.10;;;21.40;51.90;;;;;;4981108;28;20066;-47
2023/07/11 02:31:37;;;;;;;3.80;1.90;;;21.40;52.00;;;;;;4980401;28;20069;-47
2023/07/11 02:34:05;;;;;;;3.92;2.00;;;21.40;52.00;;;;;;4978291;28;20058;-49
2023/07/11 02:36:32;;;;;;;3.95;1.92;;;21.40;52.00;;;;;;4972269;28;20066;-45
2023/07/11 02:39:00;;;;;;;4.18;2.20;;;21.30;52.00;;;;;;4978548;28;20054;-45
2023/07/11 02:41:27;;;;;;;3.50;2.08;;;21.30;52.00;;;;;;4981041;28;20418;-47
2023/07/11 02:43:55;;;;;;;4.55;2.13;;;21.40;52.10;;;;;;4980508;28;20058;-43
2023/07/11 02:46:22;;;;;;;4.63;2.50;;;21.30;52.10;;;;;;4980799;28;20537;-46
2023/07/11 02:48:51;;;;;;;3.83;1.80;;;21.30;52.20;;;;;;4974988;28;20082;-45
2023/07/11 02:51:18;;;;;;;3.50;1.88;;;21.30;52.20;;;;;;4979724;28;20058;-44
2023/07/11 02:53:46;;;;;;;3.92;2.13;;;21.30;52.20;;;;;;4979903;28;20552;-46
2023/07/11 02:56:13;;;;;;;3.35;2.20;;;21.30;52.20;;;;;;4981426;28;20051;-45
2023/07/11 02:58:40;;;;;;;4.15;1.85;;;21.30;52.20;;;;;;4977441;28;20051;-44
2023/07/11 03:01:08;;;;;;;5.03;2.25;;;21.30;52.20;;;;;;4973883;28;20061;-44
2023/07/11 03:03:35;;;;;;;2.67;1.92;;;21.20;52.20;;;;;;4977195;28;20054;-44
2023/07/11 03:06:04;;;;;;;2.78;2.00;;;21.20;52.30;;;;;;4980631;28;20059;-47
2023/07/11 03:08:32;;;;;;;2.90;1.75;;;21.20;52.30;;;;;;4985299;28;20065;-44
2023/07/11 03:11:01;;;;;;;6.80;1.95;;;21.20;52.30;;;;;;4973538;28;20054;-48
2023/07/11 03:13:28;;;;;;;3.08;1.83;;;21.20;52.40;;;;;;4978656;28;20050;-47
2023/07/11 03:15:55;;;;;;;3.08;1.70;;;21.20;52.40;;;;;;4980493;28;20390;-46
2023/07/11 03:18:23;;;;;;;3.17;1.90;;;21.20;52.40;;;;;;4981411;28;20054;-47
2023/07/11 03:20:50;;;;;;;3.40;1.92;;;21.10;52.30;;;;;;4975306;28;20065;-44
2023/07/11 03:23:20;;;;;;;2.75;1.90;;;21.10;52.40;;;;;;4982482;28;20050;-43
2023/07/11 03:25:47;;;;;;;4.20;2.10;;;21.10;52.40;;;;;;4966312;28;20088;-55
2023/07/11 03:28:15;;;;;;;2.95;2.20;;;21.10;52.40;;;;;;4981370;28;20521;-56
2023/07/11 03:30:43;;;;;;;4.57;1.95;;;21.10;52.40;;;;;;4983233;28;20073;-55
2023/07/11 03:33:10;;;;;;;3.15;2.10;;;21.10;52.50;;;;;;4983539;28;20054;-54
2023/07/11 03:35:38;;;;;;;4.20;2.08;;;21.10;52.50;;;;;;4981294;28;20057;-55
2023/07/11 03:38:05;;;;;;;3.58;2.20;;;21.10;52.50;;;;;;4977661;28;20062;-55
2023/07/11 03:40:34;;;;;;;3.35;2.10;;;21.10;52.60;;;;;;4978989;28;20054;-55
2023/07/11 03:43:01;;;;;;;2.92;2.00;;;21.00;52.60;;;;;;4976919;28;20066;-56
2023/07/11 03:45:28;;;;;;;4.13;2.30;;;21.10;52.70;;;;;;4981002;28;20057;-56
2023/07/11 03:47:55;;;;;;;2.50;1.75;;;21.00;52.70;;;;;;4983494;28;20439;-53
2023/07/11 03:50:22;;;;;;;3.72;1.73;;;21.00;52.70;;;;;;4983957;28;20414;-53
2023/07/11 03:52:49;;;;;;;4.00;1.73;;;21.00;52.70;;;;;;4982111;28;20066;-56
2023/07/11 03:55:17;;;;;;;4.25;2.05;;;21.00;52.80;;;;;;4982000;28;20062;-56
2023/07/11 03:57:45;;;;;;;3.20;2.20;;;21.00;52.80;;;;;;4983559;28;20058;-55
2023/07/11 04:00:14;;;;;;;3.08;1.80;;;21.00;52.90;;;;;;4982882;28;20059;-55
2023/07/11 04:02:41;;;;;;;3.65;2.20;;;20.90;52.90;;;;;;4982359;28;20061;-56
2023/07/11 04:05:08;;;;;;;3.35;1.75;;;20.90;52.90;;;;;;4982184;28;20063;-56
2023/07/11 04:07:36;;;;;;;3.35;2.25;;;20.90;52.90;;;;;;4982125;28;20077;-55
2023/07/11 04:10:05;;;;;;;6.63;3.55;;;20.90;53.00;;;;;;4982571;28;20062;-56
2023/07/11 04:12:32;;;;;;;3.78;2.25;;;20.90;53.00;;;;;;4980114;28;20054;-54
2023/07/11 04:15:00;;;;;;;3.83;2.10;;;20.90;53.10;;;;;;4982877;28;20076;-56
2023/07/11 04:17:28;;;;;;;3.45;2.10;;;20.90;53.10;;;;;;4980553;28;20057;-55
2023/07/11 04:19:55;;;;;;;3.38;1.83;;;20.90;53.10;;;;;;4980279;28;20054;-55
2023/07/11 04:22:22;;;;;;;3.83;2.13;;;20.90;53.10;;;;;;4981495;28;20054;-55
2023/07/11 04:24:49;;;;;;;2.97;2.03;;;20.90;53.20;;;;;;4982726;28;20054;-56
2023/07/11 04:27:17;;;;;;;4.45;2.10;;;20.80;53.20;;;;;;4981170;28;20050;-56
2023/07/11 04:29:44;;;;;;;2.05;1.58;;;20.80;53.30;;;;;;4983099;28;20080;-56
2023/07/11 04:32:12;;;;;;;6.63;2.88;;;20.90;53.40;;;;;;4982596;28;20054;-55
2023/07/11 04:34:40;;;;;;;4.97;2.72;;;20.80;53.40;;;;;;4982538;28;20054;-54
2023/07/11 04:37:08;;;;;;;4.40;2.05;;;20.80;53.40;;;;;;4980706;28;20634;-45
2023/07/11 04:39:35;;;;;;;5.03;2.95;;;20.80;53.50;;;;;;4983055;28;20061;-45
2023/07/11 04:42:02;;;;;;;3.80;2.50;;;20.80;54.00;;;;;;4981655;28;20050;-50
2023/07/11 04:44:30;;;;;;;3.08;1.90;;;20.80;53.60;;;;;;4978606;28;21471;-48
2023/07/11 04:46:57;;;;;;;4.07;2.03;;;20.80;53.60;;;;;;4979922;28;20415;-44
2023/07/11 04:49:26;;;;;;;4.53;2.00;;;20.90;53.70;;;;;;4982985;28;20465;-44
2023/07/11 04:51:53;;;;;;;4.22;2.45;;;20.80;53.80;;;;;;4976043;28;20050;-45
2023/07/11 04:54:20;;;;;;;5.72;2.55;;;20.90;53.80;;;;;;4974390;28;20063;-51
2023/07/11 04:56:56;;;;;;;2.33;1.80;;;20.90;53.90;;;;;;4978887;28;20054;-46
2023/07/11 04:59:23;;;;;;;4.00;2.30;;;20.80;54.00;;;;;;4982109;28;20065;-50
2023/07/11 05:01:50;;;;;;;2.85;2.13;;;20.90;54.00;;;;;;4979313;28;20505;-50
2023/07/11 05:04:18;;;;;;;2.45;1.83;;;20.90;54.00;;;;;;4981491;28;20046;-53
2023/07/11 05:06:48;;;;;;;3.53;1.95;;;20.90;54.10;;;;;;4980909;28;20053;-52
2023/07/11 05:09:16;;;;;;;3.45;1.80;;;20.90;54.20;;;;;;4978799;28;20057;-49
2023/07/11 05:11:43;;;;;;;3.88;1.88;;;20.90;54.20;;;;;;4979587;28;20046;-48
2023/07/11 05:14:11;;;;;;;3.42;2.00;;;20.90;54.30;;;;;;4981544;28;20512;-46
2023/07/11 05:16:38;;;;;;;6.63;2.13;;;21.00;54.40;;;;;;4979989;28;21241;-44
2023/07/11 05:19:05;;;;;;;5.72;2.10;;;21.00;54.40;;;;;;4978470;28;20505;-47
2023/07/11 05:21:33;;;;;;;3.50;1.60;;;21.00;54.40;;;;;;4980420;28;20050;-50
2023/07/11 05:24:02;;;;;;;2.55;1.92;;;21.00;54.50;;;;;;4982444;28;20058;-50
2023/07/11 05:26:30;;;;;;;4.28;2.30;;;21.10;54.60;;;;;;4977470;28;20055;-44
2023/07/11 05:28:57;;;;;;;3.67;2.05;;;21.10;54.70;;;;;;4978288;28;20057;-47
2023/07/11 05:31:25;;;;;;;4.45;2.58;;;21.10;54.70;;;;;;4976642;28;20051;-53
2023/07/11 05:33:54;;;;;;;4.78;1.92;;;21.10;54.70;;;;;;4978411;28;20073;-52
2023/07/11 05:36:31;;;;;;;3.67;2.10;;;21.20;54.80;;;;;;4977874;28;20065;-45
2023/07/11 05:38:58;;;;;;;3.50;2.15;;;21.20;54.90;;;;;;4982593;28;20050;-44
2023/07/11 05:41:27;;;;;;;4.40;2.08;;;21.30;54.90;;;;;;4979968;28;20058;-46
2023/07/11 05:43:55;;;;;;;2.97;2.03;;;21.30;55.00;;;;;;4980622;28;20049;-46
2023/07/11 05:46:23;;;;;;;5.47;2.00;;;21.30;55.00;;;;;;4981144;28;20406;-47
2023/07/11 05:48:51;;;;;;;3.88;2.25;;;21.40;55.10;;;;;;4981009;28;20053;-47
2023/07/11 05:51:18;;;;;;;4.20;2.45;;;21.40;55.10;;;;;;4979546;28;20050;-51
2023/07/11 05:53:48;;;;;;;3.85;2.10;;;21.40;55.10;;;;;;4981058;28;20570;-49
2023/07/11 05:56:15;;;;;;;3.50;2.00;;;21.50;55.30;;;;;;4979701;28;20396;-51
2023/07/11 05:58:45;;;;;;;5.57;2.20;;;21.50;55.20;;;;;;4980594;28;20513;-47
2023/07/11 06:01:13;;;;;;;7.30;2.65;;;21.60;55.40;;;;;;4981029;28;20058;-44
2023/07/11 06:03:45;;;;;;;3.90;2.05;;;21.60;55.40;;;;;;4981557;28;20066;-44
2023/07/11 06:06:14;;;;;;;4.40;2.63;;;21.70;55.40;;;;;;4981268;28;20058;-47
2023/07/11 06:08:42;;;;;;;3.50;2.10;;;21.80;55.50;;;;;;4981490;28;20066;-44
2023/07/11 06:11:10;;;;;;;4.85;2.30;;;21.80;55.50;;;;;;4978725;28;20061;-49
2023/07/11 06:13:39;;;;;;;3.03;1.83;;;21.90;55.50;;;;;;4980911;28;20502;-50
2023/07/11 06:16:12;;;;;;;3.83;2.28;;;21.90;55.40;;;;;;4978625;28;20061;-51
2023/07/11 06:18:39;;;;;;;3.90;2.30;;;22.00;55.30;;;;;;4975375;28;20051;-48
2023/07/11 06:21:08;;;;;;;3.28;2.40;;;22.00;55.20;;;;;;4980216;28;20050;-50
2023/07/11 06:23:36;;;;;;;5.25;2.67;;;22.10;55.20;;;;;;4980728;28;20069;-45
2023/07/11 06:26:03;;;;;;;3.90;2.22;;;22.10;55.20;;;;;;4980192;28;20517;-44
2023/07/11 06:28:31;;;;;;;6.35;3.95;;;22.20;55.20;;;;;;4979427;28;20057;-50
2023/07/11 06:31:00;;;;;;;4.25;2.65;;;22.30;55.20;;;;;;4980609;28;20122;-45
2023/07/11 06:33:29;;;;;;;4.88;2.88;;;22.30;55.10;;;;;;4980215;28;20498;-47
2023/07/11 06:35:58;;;;;;;4.35;2.40;;;22.40;55.10;;;;;;4981185;28;20065;-47
2023/07/11 06:38:25;;;;;;;5.68;2.67;;;22.50;55.20;;;;;;4983065;28;20065;-48
2023/07/11 06:40:54;;;;;;;5.38;2.67;;;22.50;55.30;;;;;;4984340;28;20070;-46
2023/07/11 06:43:22;;;;;;;4.25;2.30;;;22.60;55.30;;;;;;4982273;28;21200;-51
2023/07/11 06:45:51;;;;;;;7.22;2.40;;;22.70;55.20;;;;;;4978937;28;20055;-46
2023/07/11 06:48:19;;;;;;;3.72;2.50;;;22.80;55.20;;;;;;4983460;28;20062;-45
2023/07/11 06:50:51;;;;;;;5.22;2.30;;;22.80;55.00;;;;;;4983938;28;20069;-45
2023/07/11 06:53:18;;;;;;;5.07;2.20;;;22.90;55.00;;;;;;4979657;28;20050;-43
2023/07/11 06:55:46;;;;;;;3.63;2.53;;;23.00;54.90;;;;;;4980925;28;20505;-51
2023/07/11 06:58:14;;;;;;;3.63;2.47;;;23.00;54.90;;;;;;4983245;28;20055;-46
2023/07/11 07:00:43;;;;;;;3.28;2.00;;;23.10;54.80;;;;;;4976670;28;20058;-51
2023/07/11 07:03:13;;;;;;;5.60;2.58;;;23.20;54.70;;;;;;4977221;28;20054;-46
2023/07/11 07:05:50;;;;;;;5.45;2.33;;;23.30;54.70;;;;;;4975187;28;20486;-45
2023/07/11 07:08:17;;;;;;;4.10;2.28;;;23.40;54.60;;;;;;4982440;28;20403;-44
2023/07/11 07:10:47;;;;;;;3.72;2.50;;;23.40;54.50;;;;;;4984017;28;20410;-45
2023/07/11 07:13:14;;;;;;;7.03;2.80;;;23.50;54.40;;;;;;4979134;28;20058;-44
2023/07/11 07:15:42;;;;;;;5.78;2.22;;;23.60;54.30;;;;;;4962474;28;20487;-44
2023/07/11 07:18:09;;;;;;;5.95;2.47;;;23.70;54.30;;;;;;4970210;28;20046;-45
2023/07/11 07:20:36;;;;;;;3.47;2.28;;;23.70;54.30;;;;;;4967550;28;20514;-44
2023/07/11 07:23:06;;;;;;;4.25;2.30;;;23.80;54.30;;;;;;4974274;28;20530;-46
2023/07/11 07:25:33;;;;;;;3.75;2.38;;;23.90;54.30;;;;;;4972200;28;20058;-45
2023/07/11 07:28:00;;;;;;;6.80;2.70;;;23.90;54.10;;;;;;4972932;28;20062;-44
2023/07/11 07:30:27;;;;;;;4.57;2.40;;;24.10;54.10;;;;;;4973170;28;20482;-51
2023/07/11 07:32:55;;;;;;;2.85;2.00;;;24.10;53.80;;;;;;4973479;28;20395;-50
2023/07/11 07:35:22;;;;;;;3.78;2.28;;;24.20;53.70;;;;;;4974221;28;20062;-52
2023/07/11 07:37:49;;;;;;;5.35;2.65;;;24.30;53.60;;;;;;4974757;28;20057;-47
2023/07/11 07:40:18;;;;;;;4.85;2.30;;;24.30;53.50;;;;;;4972207;28;20054;-47
2023/07/11 07:42:45;;;;;;;4.53;1.90;;;24.40;53.50;;;;;;4975156;28;20054;-48
2023/07/11 07:45:12;;;;;;;3.22;2.40;;;24.50;53.40;;;;;;4976073;28;20063;-43
2023/07/11 07:47:40;;;;;;;6.53;2.22;;;24.60;53.20;;;;;;4973053;28;20055;-43
2023/07/11 07:50:07;;;;;;;4.65;2.63;;;24.70;53.10;;;;;;4971700;28;20062;-43
2023/07/11 07:52:35;;;;;;;5.43;2.50;;;24.70;52.70;;;;;;4973910;28;20406;-52
2023/07/11 07:55:02;;;;;;;3.88;2.40;;;24.80;52.50;;;;;;4975403;28;20061;-51
2023/07/11 07:57:30;;;;;;;3.65;2.40;;;24.80;52.20;;;;;;4970923;28;20050;-45
2023/07/11 07:59:57;;;;;;;3.90;2.33;;;25.00;52.10;;;;;;4978559;28;20046;-46
2023/07/11 08:02:25;;;;;;;6.72;2.70;;;25.00;52.10;;;;;;4973423;28;20051;-45
2023/07/11 08:04:52;;;;;;;9.48;2.35;;;25.10;51.90;;;;;;4975656;28;20086;-43
2023/07/11 08:07:19;;;;;;;5.88;2.75;;;25.20;51.80;;;;;;4966056;28;20050;-57
2023/07/11 08:09:48;;;;;;;4.13;2.35;;;25.30;51.90;;;;;;4976461;28;20122;-55
2023/07/11 08:12:15;;;;;;;3.85;2.45;;;25.40;51.90;;;;;;4970238;28;20059;-54
2023/07/11 08:14:44;;;;;;;3.40;2.20;;;25.40;51.80;;;;;;4974800;28;20058;-53
2023/07/11 08:17:11;;;;;;;3.38;2.22;;;25.50;51.60;;;;;;4974965;28;20398;-56
2023/07/11 08:19:38;;;;;;;3.67;2.42;;;25.60;51.60;;;;;;4972055;28;20058;-56
2023/07/11 08:22:06;;;;;;;5.10;2.20;;;25.70;51.60;;;;;;4973526;28;20054;-57
2023/07/11 08:24:34;;;;;;;5.55;2.42;;;25.80;51.20;;;;;;4970712;28;20058;-52
2023/07/11 08:27:01;;;;;;;9.70;2.78;;;25.80;50.60;;;;;;4972367;28;20514;-56
2023/07/11 08:29:28;;;;;;;5.40;2.97;;;25.90;50.00;;;;;;4970967;28;20487;-57
2023/07/11 08:31:58;;;;;;;5.43;2.58;;;25.90;49.60;;;;;;4971292;28;20059;-56
2023/07/11 08:34:25;;;;;;;4.43;2.38;;;26.00;49.60;;;;;;4972327;28;20061;-55
2023/07/11 08:36:52;;;;;;;8.35;3.05;;;26.10;49.40;;;;;;4975240;28;20051;-55
2023/07/11 08:39:19;;;;;;;4.10;2.42;;;26.20;49.60;;;;;;4983608;28;20067;-56
2023/07/11 08:41:49;;;;;;;3.75;2.33;;;26.20;49.40;;;;;;4976716;28;20078;-56
2023/07/11 08:44:19;;;;;;;3.75;2.80;;;26.30;48.80;;;;;;4979630;28;20062;-56
2023/07/11 08:46:52;;;;;;;4.07;2.47;;;26.40;48.60;;;;;;4971983;28;20387;-48
2023/07/11 08:49:24;;;;;;;4.72;2.60;;;26.40;48.60;;;;;;4973317;28;20054;-53
2023/07/11 08:51:54;;;;;;;5.15;2.55;;;26.50;48.50;;;;;;4968867;28;20512;-54
2023/07/11 08:54:29;;;;;;;7.65;3.05;;;26.50;47.90;;;;;;4973903;28;20520;-56
2023/07/11 08:56:59;;;;;;;3.60;2.63;;;26.60;47.70;;;;;;4977362;28;20054;-57
2023/07/11 08:59:36;;;;;;;3.97;2.63;;;26.60;47.50;;;;;;4971390;28;20057;-57
2023/07/11 09:02:18;;;;;;;6.35;3.35;;;26.70;47.40;;;;;;4973056;28;20058;-57
2023/07/11 09:04:51;;;;;;;5.40;2.70;;;26.70;47.60;;;;;;4967739;28;20055;-54
2023/07/11 09:07:29;;;;;;;4.57;2.70;;;26.80;47.50;;;;;;4973585;28;20053;-50
2023/07/11 09:09:58;;;;;;;3.92;2.72;;;26.90;47.30;;;;;;4970763;28;20066;-57
2023/07/11 09:12:40;;;;;;;5.93;2.90;;;26.90;47.30;;;;;;4975884;28;20499;-57
2023/07/11 09:15:14;;;;;;;4.85;2.53;;;27.00;46.90;;;;;;4975885;28;20054;-42
2023/07/11 09:17:58;;;;;;;4.53;2.80;;;27.10;46.80;;;;;;4970355;28;20046;-43
2023/07/11 09:20:38;;;;;;;5.72;2.63;;;27.10;46.40;;;;;;4968144;28;20050;-45
2023/07/11 09:23:20;;;;;;;10.85;3.20;;;27.20;46.20;;;;;;4972664;28;20537;-41
2023/07/11 09:25:47;;;;;;;6.80;3.08;;;27.30;45.90;;;;;;4969654;28;20051;-41
2023/07/11 09:28:19;;;;;;;4.85;2.70;;;27.40;46.30;;;;;;4971130;28;20054;-48
2023/07/11 09:30:50;;;;;;;5.32;3.10;;;27.40;46.10;;;;;;4971024;28;20050;-46
2023/07/11 09:33:22;;;;;;;6.72;2.70;;;27.50;46.00;;;;;;4971508;28;20051;-42
2023/07/11 09:35:53;;;;;;;5.25;3.13;;;27.50;45.90;;;;;;4971492;28;20680;-43
2023/07/11 09:38:25;;;;;;;5.63;3.42;;;27.60;45.40;;;;;;4973448;28;20042;-41
2023/07/11 09:40:58;;;;;;;4.53;2.88;;;27.60;45.10;;;;;;4979589;28;20427;-42
2023/07/11 09:43:25;;;;;;;6.07;3.05;;;27.60;45.00;;;;;;4971877;28;20063;-48
2023/07/11 09:45:52;;;;;;;4.82;2.90;;;27.70;45.00;;;;;;4980354;28;20739;-44
2023/07/11 09:48:24;;;;;;;4.32;3.03;;;27.70;45.10;;;;;;4976859;28;20053;-43
2023/07/11 09:51:11;;;;;;;3.95;2.60;;;27.70;44.90;;;;;;4970188;28;20065;-41
2023/07/11 09:53:42;;;;;;;6.82;3.33;;;27.80;44.70;;;;;;4976407;28;20046;-40
2023/07/11 09:56:12;;;;;;;6.38;3.28;;;27.80;44.70;;;;;;4974061;28;20071;-44
2023/07/11 09:58:40;;;;;;;5.57;3.10;;;27.90;45.20;;;;;;4975754;28;20749;-43
2023/07/11 10:01:16;;;;;;;5.43;2.83;;;27.90;44.80;;;;;;4969458;28;20065;-43
2023/07/11 10:03:47;;;;;;;5.40;3.08;;;28.00;44.80;;;;;;4977875;28;20426;-42
2023/07/11 10:06:32;;;;;;;5.00;3.20;;;28.00;44.50;;;;;;4966781;28;20080;-45
2023/07/11 10:09:21;;;;;;;8.82;3.15;;;28.00;44.60;;;;;;4968763;28;20051;-41
2023/07/11 10:11:53;;;;;;;5.85;3.55;;;28.10;44.40;;;;;;4972023;28;20633;-42
2023/07/11 10:14:22;;;;;;;4.90;3.20;;;28.20;44.30;;;;;;4978462;28;20281;-41
2023/07/11 10:16:49;;;;;;;9.07;3.63;;;28.20;44.30;;;;;;4974576;28;20050;-43
2023/07/11 10:19:17;;;;;;;7.32;3.65;;;28.20;43.80;;;;;;4972954;28;20054;-41
2023/07/11 10:21:48;;;;;;;6.45;3.53;;;28.30;43.60;;;;;;4972732;28;20058;-42
2023/07/11 10:24:18;;;;;;;6.82;3.35;;;28.30;43.50;;;;;;4975208;28;20093;-46
2023/07/11 10:26:49;;;;;;;7.90;3.75;;;28.30;43.50;;;;;;4975704;28;20050;-50
2023/07/11 10:29:18;;;;;;;7.03;3.47;;;28.40;43.50;;;;;;4971930;28;20059;-56
2023/07/11 10:31:50;;;;;;;6.35;3.90;;;28.40;43.60;;;;;;4976285;28;20585;-53
2023/07/11 10:34:25;;;;;;;9.38;3.78;;;28.40;43.30;;;;;;4971739;28;20054;-51
2023/07/11 10:36:58;;;;;;;5.63;3.47;;;28.40;43.50;;;;;;4965753;28;20051;-56
2023/07/11 10:39:29;;;;;;;6.17;3.30;;;28.50;43.90;;;;;;4974803;28;20054;-51
2023/07/11 10:42:00;;;;;;;9.93;4.10;;;28.50;43.90;;;;;;4968317;28;20411;-57
2023/07/11 10:44:33;;;;;;;7.38;3.92;;;28.60;43.40;;;;;;4976751;28;20061;-58
2023/07/11 10:47:01;;;;;;;6.05;3.70;;;28.60;43.10;;;;;;4965610;28;20062;-49
2023/07/11 10:49:36;;;;;;;7.97;3.67;;;28.70;43.20;;;;;;4973093;28;20042;-52
2023/07/11 10:52:09;;;;;;;6.85;3.60;;;28.70;43.00;;;;;;4966356;28;20624;-56
2023/07/11 10:54:45;;;;;;;6.50;4.22;;;28.70;43.40;;;;;;4975988;28;20073;-55
2023/07/11 10:57:16;;;;;;;6.30;3.58;;;28.80;43.20;;;;;;4969776;28;20597;-57
2023/07/11 10:59:43;;;;;;;7.88;4.00;;;28.80;43.40;;;;;;4976037;28;20062;-47
2023/07/11 11:02:16;;;;;;;6.38;3.50;;;28.80;43.00;;;;;;4971511;28;20059;-46
2023/07/11 11:04:56;;;;;;;9.82;4.50;;;28.90;42.70;;;;;;4972224;28;20057;-48
2023/07/11 11:07:31;;;;;;;7.20;4.47;;;29.00;42.80;;;;;;4972792;28;20426;-53
2023/07/11 11:10:04;;;;;;;5.70;4.00;;;29.00;42.50;;;;;;4973244;28;20511;-46
2023/07/11 11:12:39;;;;;;;7.30;4.65;;;29.10;42.40;;;;;;4977750;28;20049;-46
2023/07/11 11:15:28;;;;;;;8.70;4.25;;;29.10;42.10;;;;;;4971237;28;20063;-48
2023/07/11 11:18:12;;;;;;;6.57;4.30;;;29.20;42.10;;;;;;4973390;28;20069;-55
2023/07/11 11:20:54;;;;;;;6.47;4.40;;;29.10;42.20;;;;;;4970637;28;20059;-54
2023/07/11 11:23:31;;;;;;;9.18;4.90;;;29.20;42.10;;;;;;4979024;28;20501;-56
2023/07/11 11:26:11;;;;;;;6.85;4.43;;;29.30;42.20;;;;;;4977689;28;20069;-56
2023/07/11 11:28:48;;;;;;;6.32;4.15;;;29.30;42.30;;;;;;4973076;28;20059;-57
2023/07/11 11:31:21;;;;;;;6.15;4.30;;;29.40;42.60;;;;;;4979036;28;20057;-57
2023/07/11 11:33:59;;;;;;;7.45;4.72;;;29.40;42.40;;;;;;4976120;28;20415;-56
2023/07/11 11:36:30;;;;;;;5.75;4.78;;;29.50;42.70;;;;;;4977661;28;20426;-49
2023/07/11 11:39:14;;;;;;;6.85;4.65;;;29.60;42.10;;;;;;4974899;28;20055;-57
2023/07/11 11:41:46;;;;;;;9.00;5.20;;;29.60;41.70;;;;;;4976337;28;21081;-51
2023/07/11 11:44:18;;;;;;;7.38;4.90;;;29.70;40.00;;;;;;4980037;28;20046;-56
2023/07/11 11:46:47;;;;;;;11.88;5.38;;;29.70;40.30;;;;;;4968644;28;20062;-50
2023/07/11 11:49:16;;;;;;;7.90;4.80;;;29.80;40.20;;;;;;4971663;28;20061;-55
2023/07/11 11:51:45;;;;;;;8.02;4.15;;;29.90;40.40;;;;;;4974411;28;20057;-55
2023/07/11 11:54:21;;;;;;;8.82;4.75;;;30.00;41.00;;;;;;4978557;28;20430;-58
2023/07/11 11:56:52;;;;;;;7.85;4.70;;;30.00;40.80;;;;;;4973217;28;20054;-52
2023/07/11 11:59:22;;;;;;;12.45;5.20;;;30.20;41.20;;;;;;4970428;28;20055;-52
2023/07/11 12:02:04;;;;;;;9.32;5.07;;;30.20;40.10;;;;;;4974629;28;20391;-49
2023/07/11 12:04:38;;;;;;;6.57;4.78;;;30.30;40.00;;;;;;4974601;28;20061;-57
2023/07/11 12:07:17;;;;;;;9.15;5.78;;;30.30;40.20;;;;;;4976139;28;20059;-56
2023/07/11 12:09:49;;;;;;;8.70;5.75;;;30.40;39.40;;;;;;4975610;28;20505;-55
2023/07/11 12:12:19;;;;;;;8.93;6.22;;;30.40;39.30;;;;;;4972738;28;20494;-55
2023/07/11 12:14:59;;;;;;;9.85;6.47;;;30.50;39.50;;;;;;4970758;28;20398;-52
2023/07/11 12:17:47;;;;;;;9.60;6.60;;;30.50;39.60;;;;;;4969090;28;20058;-49
2023/07/11 12:20:21;;;;;;;10.43;6.25;;;30.60;40.10;;;;;;4972978;28;20438;-46
2023/07/11 12:23:17;;;;;;;9.43;6.88;;;30.60;39.90;;;;;;4970821;28;20063;-52
2023/07/11 12:26:09;;;;;;;10.63;7.07;;;30.60;39.30;;;;;;4967620;28;20062;-56
2023/07/11 12:28:37;;;;;;;10.27;6.53;;;30.60;39.10;;;;;;4970591;28;20061;-58
2023/07/11 12:31:16;;;;;;;12.15;7.38;;;30.70;38.70;;;;;;4972952;28;20062;-55
2023/07/11 12:33:43;;;;;;;9.40;6.22;;;30.70;38.70;;;;;;4972675;28;20523;-57
2023/07/11 12:36:49;;;;;;;8.05;6.20;;;30.70;38.80;;;;;;4972693;28;20053;-47
2023/07/11 12:39:29;;;;;;;10.13;7.25;;;30.80;38.30;;;;;;4971596;28;20046;-54
2023/07/11 12:42:09;;;;;;;7.60;6.15;;;30.80;37.90;;;;;;4974372;28;20073;-51
2023/07/11 12:44:39;;;;;;;11.32;6.93;;;30.90;38.00;;;;;;4970960;28;20059;-45
2023/07/11 12:47:14;;;;;;;10.45;7.32;;;30.90;37.80;;;;;;4971003;28;21226;-53
2023/07/11 12:49:43;;;;;;;9.10;6.72;;;30.90;37.60;;;;;;4972636;28;20058;-50
2023/07/11 12:52:12;;;;;;;8.70;6.47;;;31.00;37.60;;;;;;4971574;28;20057;-52
2023/07/11 12:54:40;;;;;;;10.68;7.13;;;31.00;37.50;;;;;;4977893;28;20414;-53
2023/07/11 12:57:14;;;;;;;10.23;6.95;;;31.00;37.70;;;;;;4977933;28;20222;-55
2023/07/11 12:59:41;;;;;;;11.23;7.03;;;31.00;36.90;;;;;;4978158;28;20058;-53